LEXJ/SDR METAR and TAF weather

Enter ICAO airport designator
Station Type Date Time Source
LEXJ METAR 2019/09/21 21:00 UTC NOAA

LEXJ 212100Z 21016G29KT 140V250 9999 FEW045 BKN060 25/15 Q1004


Station Type Date Time Source
LEXJ Decoded METAR 2019/09/21 21:00 UTC NOAA

Santander / Parayas, Spain (LEXJ) 43-26N 003-49W 9M
Sep 21, 2019 - 05:00 PM EDT / 2019.09.21 2100 UTC
Wind: from the SSW (210 degrees) at 18 MPH (16 KT) gusting to 33 MPH (29 KT) (direction variable):0
Visibility: greater than 7 mile(s):0
Sky conditions: mostly cloudy
Temperature: 77 F (25 C)
Dew Point: 59 F (15 C)
Relative Humidity: 53%
Pressure (altimeter): 29.65 in. Hg (1004 hPa)
ob: LEXJ 212100Z 21016G29KT 140V250 9999 FEW045 BKN060 25/15 Q1004
cycle: 21

Station Type Date Time Source
LEXJ TAF 2019/09/21 21:27 UTC NOAA

TAF LEXJ 212000Z 2121/2221 20015KT 9999 SCT030 TX24/2212Z TN16/2206Z
TEMPO 2121/2122 23016G28KT
BECMG 2121/2124 29012KT
TEMPO 2121/2202 29018G30KT 3000 RA SHRA BKN010 BKN020TCU
BECMG 2200/2204 VRB06KT PROB30
TEMPO 2202/2206 SHRA SCT025TCU PROB40
TEMPO 2211/2218 34010KT SCT035TCU

Example: see airport list